KRSW/RSW METAR and TAF weather

Enter ICAO airport designator
Station Type Date Time Source
KRSW METAR 2022/05/24 12:53 UTC NOAA

KRSW 241253Z 12006KT 10SM CLR 26/23 A3004 RMK AO2 SLP168 T02610233


Station Type Date Time Source
KRSW Decoded METAR 2022/05/24 12:53 UTC NOAA

FORT MYERS SW FL INTERNATIONAL AIRPORT , FL, United States (KRSW) 26-32N 081-46W 9M
May 24, 2022 - 08:53 AM EDT / 2022.05.24 1253 UTC
Wind: from the ESE (120 degrees) at 7 MPH (6 KT):0
Visibility: 10 mile(s):0
Sky conditions: clear
Temperature: 79.0 F (26.1 C)
Dew Point: 73.9 F (23.3 C)
Relative Humidity: 84%
Pressure (altimeter): 30.04 in. Hg (1017 hPa)
ob: KRSW 241253Z 12006KT 10SM CLR 26/23 A3004 RMK AO2 SLP168 T02610233
cycle: 13

Station Type Date Time Source
KRSW TAF 2022/05/24 12:34 UTC NOAA

TAF KRSW 241132Z 2412/2512 08006KT P6SM FEW020 BKN200
FM241400 14010KT P6SM SCT040 BKN200
FM241900 16012KT P6SM SCT040 BKN200
FM250200 11006KT P6SM SCT200

Example: see airport list